Météo des aéroports (METAR) proches de Ticheville

 

LFRG - St Gatien, France
Distance from station: N 52km
Mise à jour: 25/11/2017 02:30
pluie légère, Thunderstorm
pluie légère, Thunderstorm
 Wind from NO
Vent: NO 7 km/h
Température: 5°C
Wind Chill: 3°C
Point de rosée: 5°C
Humidité: 100%
Baromètre: 1011 hPa
Résumé: pluie légère
Clouds: Thunderstorm
Visibility: 7 km
Cloud details: nuageux 274 m
nuageux 457 m
nuageux 975 m
2017/11/25 01:30 LFRG 250130Z AUTO 31004KT 250V030 7000 -RA BKN009/// BKN015/// BKN032/// ///CB 05/05 Q1011
LFRK - Caen/Carpiquet(A, France
Distance from station: ONO 60km
Mise à jour: 25/11/2017 02:30
Thunderstorm
Thunderstorm
 Wind from O
Vent: O 19 km/h
Température: 6°C
Wind Chill: 3°C
Point de rosée: 4°C
Humidité: 87%
Baromètre: 1012 hPa
Clouds: Thunderstorm
Visibility: 10 km
Cloud details: Few Clouds 1250 m
couvert 3962 m
2017/11/25 01:30 LFRK 250130Z AUTO 27010KT 9999 FEW041/// OVC130/// ///TCU 06/04 Q1012
 
LFOH - Le Havre/Octevil, France
Distance from station: NNO 69km
Mise à jour: 25/11/2017 02:30
pluie légère, Thunderstorm
pluie légère, Thunderstorm
 Wind from N
Vent: N 20 km/h
Température: 7°C
Wind Chill: 4°C
Point de rosée: 5°C
Humidité: 87%
Baromètre: 1011 hPa
Résumé: pluie légère
Clouds: Thunderstorm
Visibility: 10 km
Cloud details: nuageux 366 m
nuageux 549 m
nuageux 914 m
2017/11/25 01:30 LFOH 250130Z AUTO 35011KT 320V050 9999 -RA BKN012/// BKN018/// BKN030/// ///TCU 07/05 Q1011
LFOE - Evreux/Fauville, France
Distance from station: E 70km
Mise à jour: 25/11/2017 02:30
clair
clair
 Wind from O
Vent: O 6 km/h
Température: 4°C
Point de rosée: 3°C
Humidité: 93%
Baromètre: 1011 hPa
Résumé: clair
Visibility: greater than 10 km
2017/11/25 01:30 LFOE 250130Z AUTO 26003KT CAVOK 04/03 Q1011
 
LFOP - Rouen/Boos (aut), France
Distance from station: NE 83km
Mise à jour: 25/11/2017 02:30
Mist, nuageux
Mist, nuageux
 Wind from O
Vent: O 7 km/h
Température: 3°C
Wind Chill: 1°C
Point de rosée: 3°C
Humidité: 100%
Baromètre: 1011 hPa
Résumé: Mist
Clouds: nuageux
Visibility: 5 km
Cloud details: nuageux 884 m
2017/11/25 01:30 LFOP 250130Z AUTO 27004KT 4500 BR BKN029 03/03 Q1011
LFRM - Le Mans/Arnage(A, France
Distance from station: S 107km
Mise à jour: 25/11/2017 02:30
clair
clair
 Wind from varies
Vent: varies 4 km/h
Température: 7°C
Point de rosée: 7°C
Humidité: 100%
Baromètre: 1013 hPa
Résumé: clair
Visibility: greater than 10 km
2017/11/25 01:30 LFRM 250130Z AUTO VRB02KT CAVOK 07/07 Q1013